createdAt,value
2024-05-09T00:00:10.424Z,37.87
2024-05-09T00:01:08.591Z,37.89
2024-05-09T00:02:07.535Z,37.88
2024-05-09T00:03:08.870Z,37.89
2024-05-09T00:04:07.823Z,37.88
2024-05-09T00:05:07.922Z,37.87
2024-05-09T00:06:08.034Z,37.88
2024-05-09T00:07:07.883Z,37.85
2024-05-09T00:08:07.935Z,37.86
2024-05-09T00:09:07.982Z,37.86
2024-05-09T00:10:11.820Z,37.86
2024-05-09T00:11:09.158Z,37.88
2024-05-09T00:12:08.247Z,37.84
2024-05-09T00:13:08.444Z,37.84
2024-05-09T00:14:08.062Z,37.83
2024-05-09T00:15:08.014Z,37.86
2024-05-09T00:16:07.976Z,37.82
2024-05-09T00:17:08.020Z,37.85
2024-05-09T00:18:08.569Z,37.84
2024-05-09T00:19:08.064Z,37.84
2024-05-09T00:20:14.403Z,37.84
2024-05-09T00:21:09.332Z,37.83
2024-05-09T00:22:08.017Z,37.85
2024-05-09T00:23:08.317Z,37.85
2024-05-09T00:24:08.029Z,37.83
2024-05-09T00:25:08.009Z,37.84
2024-05-09T00:26:08.058Z,37.84
2024-05-09T00:27:09.031Z,37.83
2024-05-09T00:28:07.998Z,37.83
2024-05-09T00:29:08.071Z,37.83
2024-05-09T00:30:11.566Z,37.85
2024-05-09T00:31:09.012Z,37.83
2024-05-09T00:32:08.147Z,37.85
2024-05-09T00:33:09.614Z,37.85
2024-05-09T00:34:08.135Z,37.85
2024-05-09T00:35:08.157Z,37.84
2024-05-09T00:36:08.013Z,37.83
2024-05-09T00:37:08.015Z,37.84
2024-05-09T00:38:08.278Z,37.84
2024-05-09T00:39:08.008Z,37.85
2024-05-09T00:40:15.338Z,37.84
2024-05-09T00:41:09.098Z,37.85
2024-05-09T00:42:08.037Z,37.85
2024-05-09T00:43:08.034Z,37.82
2024-05-09T00:44:08.500Z,37.83
2024-05-09T00:45:08.017Z,37.83
2024-05-09T00:46:08.052Z,37.82
2024-05-09T00:47:08.274Z,37.84
2024-05-09T00:48:09.464Z,37.82
2024-05-09T00:49:08.239Z,37.83
2024-05-09T00:50:12.880Z,37.82
2024-05-09T00:51:09.221Z,37.82
2024-05-09T00:52:08.163Z,37.85
2024-05-09T00:53:08.293Z,37.82
2024-05-09T00:54:08.183Z,37.82
2024-05-09T00:55:08.181Z,37.80
2024-05-09T00:56:08.233Z,37.83
2024-05-09T00:57:08.155Z,37.82
2024-05-09T00:58:08.160Z,37.82
2024-05-09T00:59:08.217Z,37.81
2024-05-09T01:00:18.363Z,37.81
2024-05-09T01:01:09.231Z,37.82
2024-05-09T01:02:08.276Z,37.83
2024-05-09T01:03:09.248Z,37.81
2024-05-09T01:04:08.260Z,37.84
2024-05-09T01:05:08.271Z,37.83
2024-05-09T01:06:08.219Z,37.81
2024-05-09T01:07:08.243Z,37.81
2024-05-09T01:08:08.517Z,37.83
2024-05-09T01:09:08.181Z,37.81
2024-05-09T01:10:14.107Z,37.81
2024-05-09T01:11:09.302Z,37.81
2024-05-09T01:12:08.429Z,37.82
2024-05-09T01:13:08.203Z,37.83
2024-05-09T01:14:08.242Z,37.82
2024-05-09T01:15:08.180Z,37.82
2024-05-09T01:16:08.201Z,37.81
2024-05-09T01:17:08.267Z,37.78
2024-05-09T01:18:08.347Z,37.79
2024-05-09T01:19:08.268Z,37.80
2024-05-09T01:20:10.748Z,37.80
2024-05-09T01:21:09.255Z,37.78
2024-05-09T01:22:08.172Z,37.79
2024-05-09T01:23:08.397Z,37.78
2024-05-09T01:24:08.200Z,37.80
2024-05-09T01:25:08.201Z,37.78
2024-05-09T01:26:08.289Z,37.80
2024-05-09T01:27:08.180Z,37.79
2024-05-09T01:28:08.236Z,37.78
2024-05-09T01:29:08.251Z,37.78
2024-05-09T01:30:11.909Z,37.77
2024-05-09T01:31:09.234Z,37.80
2024-05-09T01:32:08.286Z,37.80
2024-05-09T01:33:10.195Z,37.79
2024-05-09T01:34:08.254Z,37.79
2024-05-09T01:35:08.250Z,37.78
2024-05-09T01:36:08.245Z,37.78
2024-05-09T01:37:08.221Z,37.78
2024-05-09T01:38:08.300Z,37.80
2024-05-09T01:39:08.209Z,37.79
2024-05-09T01:40:12.261Z,37.81
2024-05-09T01:41:09.337Z,37.80
2024-05-09T01:42:08.253Z,37.80
2024-05-09T01:43:09.459Z,37.78
2024-05-09T01:44:08.297Z,37.79
2024-05-09T01:45:08.223Z,37.79
2024-05-09T01:46:08.255Z,37.80
2024-05-09T01:47:08.416Z,37.79
2024-05-09T01:48:08.561Z,37.79
2024-05-09T01:49:08.405Z,37.80
2024-05-09T01:50:10.779Z,37.77
2024-05-09T01:51:08.462Z,37.80
2024-05-09T01:52:08.246Z,37.78
2024-05-09T01:53:08.425Z,37.80
2024-05-09T01:54:08.296Z,37.81
2024-05-09T01:55:08.260Z,37.77
2024-05-09T01:56:08.340Z,37.79
2024-05-09T01:57:08.270Z,37.78
2024-05-09T01:58:08.237Z,37.74
2024-05-09T01:59:08.338Z,37.79
2024-05-09T02:00:10.232Z,37.78
2024-05-09T02:01:08.292Z,37.80
2024-05-09T02:02:08.446Z,37.80
2024-05-09T02:03:08.528Z,37.83
2024-05-09T02:04:08.471Z,37.82
2024-05-09T02:05:08.405Z,37.80
2024-05-09T02:06:08.472Z,37.80
2024-05-09T02:07:08.275Z,37.80
2024-05-09T02:08:08.361Z,37.80
2024-05-09T02:09:08.296Z,37.79
2024-05-09T02:10:16.117Z,37.78
2024-05-09T02:11:09.393Z,37.81
2024-05-09T02:12:08.485Z,37.81
2024-05-09T02:13:08.287Z,37.78
2024-05-09T02:14:08.326Z,37.79
2024-05-09T02:15:08.332Z,37.79
2024-05-09T02:16:08.279Z,37.79
2024-05-09T02:17:08.414Z,37.79
2024-05-09T02:18:08.627Z,37.77
2024-05-09T02:19:08.445Z,37.79
2024-05-09T02:20:13.138Z,37.79
2024-05-09T02:21:09.325Z,37.80
2024-05-09T02:22:08.344Z,37.81
2024-05-09T02:23:08.454Z,37.78
2024-05-09T02:24:08.297Z,37.80
2024-05-09T02:25:08.296Z,37.79
2024-05-09T02:26:08.357Z,37.80
2024-05-09T02:27:08.280Z,37.79
2024-05-09T02:28:08.330Z,37.78
2024-05-09T02:29:08.357Z,37.78
2024-05-09T02:30:18.280Z,37.79
2024-05-09T02:31:09.310Z,37.80
2024-05-09T02:32:08.415Z,37.76
2024-05-09T02:33:09.245Z,37.76
2024-05-09T02:34:08.417Z,37.80
2024-05-09T02:35:08.610Z,37.80
2024-05-09T02:36:08.321Z,37.78
2024-05-09T02:37:08.295Z,37.80
2024-05-09T02:38:08.301Z,37.80
2024-05-09T02:39:08.297Z,37.79
2024-05-09T02:40:11.722Z,37.80
2024-05-09T02:41:09.404Z,37.79
2024-05-09T02:42:08.316Z,37.80
2024-05-09T02:43:09.778Z,37.79
2024-05-09T02:44:08.551Z,37.80
2024-05-09T02:45:08.545Z,37.79
2024-05-09T02:46:08.546Z,37.75
2024-05-09T02:47:08.651Z,37.77
2024-05-09T02:48:08.642Z,37.80
2024-05-09T02:49:08.694Z,37.81
2024-05-09T02:50:08.669Z,37.80
2024-05-09T02:51:08.724Z,37.82
2024-05-09T02:52:08.586Z,37.80
2024-05-09T02:53:09.500Z,37.81
2024-05-09T02:54:08.623Z,37.82
2024-05-09T02:55:08.618Z,37.79
2024-05-09T02:56:08.678Z,37.81
2024-05-09T02:57:08.653Z,37.80
2024-05-09T02:58:08.653Z,37.79
2024-05-09T02:59:08.665Z,37.82
2024-05-09T03:00:15.178Z,37.82
2024-05-09T03:01:09.743Z,37.84
2024-05-09T03:02:08.711Z,37.82
2024-05-09T03:03:10.330Z,37.84
2024-05-09T03:04:08.797Z,37.83
2024-05-09T03:05:08.713Z,37.79
2024-05-09T03:06:08.682Z,37.82
2024-05-09T03:07:08.682Z,37.82
2024-05-09T03:08:08.907Z,37.83
2024-05-09T03:09:08.712Z,37.81
2024-05-09T03:10:18.148Z,37.81
2024-05-09T03:11:09.799Z,37.83
2024-05-09T03:12:08.742Z,37.81
2024-05-09T03:13:09.094Z,37.80
2024-05-09T03:14:08.724Z,37.82
2024-05-09T03:15:08.698Z,37.80
2024-05-09T03:16:08.709Z,37.79
2024-05-09T03:17:08.802Z,37.80
2024-05-09T03:18:08.913Z,37.78
2024-05-09T03:19:08.850Z,37.79
2024-05-09T03:20:17.282Z,37.79
2024-05-09T03:21:09.840Z,37.80
2024-05-09T03:22:08.734Z,37.78
2024-05-09T03:23:09.852Z,37.82
2024-05-09T03:24:08.709Z,37.81
2024-05-09T03:25:08.712Z,37.78
2024-05-09T03:26:08.775Z,37.81
2024-05-09T03:27:08.722Z,37.79
2024-05-09T03:28:08.722Z,37.78
2024-05-09T03:29:08.761Z,37.79
2024-05-09T03:30:09.851Z,37.79
2024-05-09T03:31:08.718Z,37.76
2024-05-09T03:32:08.834Z,37.78
2024-05-09T03:33:09.018Z,37.79
2024-05-09T03:34:08.879Z,37.78
2024-05-09T03:35:08.723Z,37.81
2024-05-09T03:36:11.210Z,37.78
2024-05-09T03:37:08.751Z,37.81
2024-05-09T03:38:08.957Z,37.79
2024-05-09T03:39:08.772Z,37.81
2024-05-09T03:40:14.501Z,37.81
2024-05-09T03:41:09.797Z,37.80
2024-05-09T03:42:08.719Z,37.81
2024-05-09T03:43:08.735Z,37.79
2024-05-09T03:44:08.767Z,37.80
2024-05-09T03:45:08.752Z,37.79
2024-05-09T03:46:08.751Z,37.79
2024-05-09T03:47:08.797Z,37.81
2024-05-09T03:48:09.115Z,37.79
2024-05-09T03:49:08.908Z,37.79
2024-05-09T03:50:15.178Z,37.79
2024-05-09T03:51:09.884Z,37.80
2024-05-09T03:52:08.763Z,37.82
2024-05-09T03:53:08.780Z,37.82
2024-05-09T03:54:08.777Z,37.80
2024-05-09T03:55:08.775Z,37.82
2024-05-09T03:56:08.817Z,37.81
2024-05-09T03:57:08.730Z,37.80
2024-05-09T03:58:08.771Z,37.80
2024-05-09T03:59:08.793Z,37.80
2024-05-09T04:00:17.738Z,37.78
2024-05-09T04:01:09.812Z,37.79
2024-05-09T04:02:08.891Z,37.78
2024-05-09T04:03:11.292Z,37.81
2024-05-09T04:04:08.940Z,37.78
2024-05-09T04:05:08.823Z,37.79
2024-05-09T04:06:08.808Z,37.78
2024-05-09T04:07:08.761Z,37.80
2024-05-09T04:08:08.888Z,37.74
2024-05-09T04:09:08.769Z,37.75
2024-05-09T04:10:11.293Z,37.73
2024-05-09T04:11:09.927Z,37.75
2024-05-09T04:12:08.818Z,37.71
2024-05-09T04:13:08.801Z,37.72
2024-05-09T04:14:08.793Z,37.70
2024-05-09T04:15:12.146Z,37.66
2024-05-09T04:16:08.751Z,37.66
2024-05-09T04:17:08.935Z,37.63
2024-05-09T04:18:08.907Z,37.65
2024-05-09T04:19:08.846Z,37.62
2024-05-09T04:20:12.418Z,37.63
2024-05-09T04:21:09.918Z,37.60
2024-05-09T04:22:08.806Z,37.58
2024-05-09T04:23:09.551Z,37.57
2024-05-09T04:24:08.767Z,37.54
2024-05-09T04:25:08.776Z,37.53
2024-05-09T04:26:08.834Z,37.50
2024-05-09T04:27:08.784Z,37.50
2024-05-09T04:28:08.792Z,37.48
2024-05-09T04:29:08.769Z,37.45
2024-05-09T04:30:15.312Z,37.47
2024-05-09T04:31:09.835Z,37.46
2024-05-09T04:32:08.902Z,37.42
2024-05-09T04:33:11.309Z,37.43
2024-05-09T04:34:09.003Z,37.43
2024-05-09T04:35:08.853Z,37.42
2024-05-09T04:36:08.846Z,37.40
2024-05-09T04:37:08.792Z,37.39
2024-05-09T04:38:08.846Z,37.37
2024-05-09T04:39:16.086Z,37.43
2024-05-09T04:40:24.287Z,37.38
2024-05-09T04:41:17.102Z,37.39
2024-05-09T04:42:16.109Z,37.36
2024-05-09T04:43:16.225Z,37.37
2024-05-09T04:44:16.170Z,37.36
2024-05-09T04:45:16.128Z,37.37
2024-05-09T04:46:16.148Z,37.36
2024-05-09T04:47:16.203Z,37.39
2024-05-09T04:48:16.498Z,37.36
2024-05-09T04:49:16.212Z,37.37
2024-05-09T04:50:25.211Z,37.37
2024-05-09T04:51:17.193Z,37.35
2024-05-09T04:52:16.120Z,37.38
2024-05-09T04:53:16.285Z,37.38
2024-05-09T04:54:26.314Z,37.36
2024-05-09T04:55:17.167Z,37.38
2024-05-09T04:56:16.182Z,37.38
2024-05-09T04:57:16.174Z,37.38
2024-05-09T04:58:16.177Z,37.38
2024-05-09T04:59:16.184Z,37.36
2024-05-09T05:00:21.979Z,37.40
2024-05-09T05:01:17.240Z,37.37
2024-05-09T05:02:16.207Z,37.40
2024-05-09T05:03:16.905Z,37.42
2024-05-09T05:04:16.284Z,37.41
2024-05-09T05:05:16.441Z,37.42
2024-05-09T05:06:16.163Z,37.39
2024-05-09T05:07:16.129Z,37.42
2024-05-09T05:08:17.158Z,37.39
2024-05-09T05:09:16.128Z,37.38
2024-05-09T05:10:21.693Z,37.39
2024-05-09T05:11:17.384Z,37.39
2024-05-09T05:12:16.281Z,37.41
2024-05-09T05:13:16.167Z,37.38
2024-05-09T05:14:16.195Z,37.40
2024-05-09T05:15:16.175Z,37.39
2024-05-09T05:16:16.177Z,37.41
2024-05-09T05:17:16.183Z,37.37
2024-05-09T05:18:16.521Z,37.41
2024-05-09T05:19:17.747Z,37.40
2024-05-09T05:20:26.944Z,37.40
2024-05-09T05:21:17.181Z,37.40
2024-05-09T05:22:16.175Z,37.38
2024-05-09T05:23:16.603Z,37.40
2024-05-09T05:24:16.177Z,37.41
2024-05-09T05:25:16.143Z,37.42
2024-05-09T05:26:16.180Z,37.40
2024-05-09T05:27:16.157Z,37.39
2024-05-09T05:28:16.186Z,37.38
2024-05-09T05:29:18.596Z,37.40
2024-05-09T05:30:21.438Z,37.40
2024-05-09T05:31:17.179Z,37.38
2024-05-09T05:32:16.403Z,37.40
2024-05-09T05:33:16.382Z,37.38
2024-05-09T05:34:16.206Z,37.39
2024-05-09T05:35:16.236Z,37.36
2024-05-09T05:36:16.157Z,37.37
2024-05-09T05:37:16.175Z,37.36
2024-05-09T05:38:16.253Z,37.36
2024-05-09T05:39:16.187Z,37.35
2024-05-09T05:40:25.306Z,37.35
2024-05-09T05:41:17.236Z,37.38
2024-05-09T05:42:16.173Z,37.38
2024-05-09T05:43:16.235Z,37.36
2024-05-09T05:44:16.240Z,37.38
2024-05-09T05:45:16.179Z,37.38
2024-05-09T05:46:16.186Z,37.38
2024-05-09T05:47:16.305Z,37.37
2024-05-09T05:48:16.687Z,37.37
2024-05-09T05:49:16.369Z,37.36
2024-05-09T05:50:24.593Z,37.36
2024-05-09T05:51:17.419Z,37.38
2024-05-09T05:52:16.186Z,37.40
2024-05-09T05:53:16.393Z,37.40
2024-05-09T05:54:16.176Z,37.37
2024-05-09T05:55:16.221Z,37.38
2024-05-09T05:56:16.202Z,37.38
2024-05-09T05:57:16.201Z,37.38
2024-05-09T05:58:16.215Z,37.38
2024-05-09T05:59:16.330Z,37.41
2024-05-09T06:00:25.970Z,37.39
2024-05-09T06:01:17.277Z,37.41
2024-05-09T06:02:16.317Z,37.37
2024-05-09T06:03:16.422Z,37.39
2024-05-09T06:04:16.232Z,37.40
2024-05-09T06:05:16.250Z,37.39
2024-05-09T06:06:16.214Z,37.37
2024-05-09T06:07:16.226Z,37.34
2024-05-09T06:08:16.296Z,37.36
2024-05-09T06:09:16.199Z,37.34
2024-05-09T06:10:21.487Z,37.36
2024-05-09T06:11:17.282Z,37.34
2024-05-09T06:12:16.366Z,37.34
2024-05-09T06:13:16.234Z,37.31
2024-05-09T06:14:16.253Z,37.31
2024-05-09T06:15:16.226Z,37.31
2024-05-09T06:16:16.234Z,37.30
2024-05-09T06:17:16.312Z,37.31
2024-05-09T06:18:16.341Z,37.29
2024-05-09T06:19:16.344Z,37.28
2024-05-09T06:20:20.818Z,37.26
2024-05-09T06:21:17.523Z,37.25
2024-05-09T06:22:16.226Z,37.25
2024-05-09T06:23:16.242Z,37.24
2024-05-09T06:24:16.235Z,37.22
2024-05-09T06:25:16.246Z,37.21
2024-05-09T06:26:16.302Z,37.20
2024-05-09T06:27:16.272Z,37.17
2024-05-09T06:28:16.285Z,37.15
2024-05-09T06:29:16.366Z,37.13
2024-05-09T06:30:25.709Z,37.14
2024-05-09T06:31:17.262Z,37.16
2024-05-09T06:32:16.414Z,37.13
2024-05-09T06:33:16.922Z,37.14
2024-05-09T06:34:16.443Z,37.13
2024-05-09T06:35:16.291Z,37.14
2024-05-09T06:36:16.277Z,37.10
2024-05-09T06:37:16.288Z,37.11
2024-05-09T06:38:16.285Z,37.10
2024-05-09T06:39:16.253Z,37.11
2024-05-09T06:40:21.408Z,37.10
2024-05-09T06:41:17.336Z,37.09
2024-05-09T06:42:16.252Z,37.08
2024-05-09T06:43:18.292Z,37.06
2024-05-09T06:44:16.326Z,37.04
2024-05-09T06:45:16.244Z,37.05
2024-05-09T06:46:16.306Z,37.02
2024-05-09T06:47:16.355Z,37.01
2024-05-09T06:48:16.349Z,37.01
2024-05-09T06:49:16.401Z,36.99
2024-05-09T06:50:23.428Z,37.02
2024-05-09T06:51:17.493Z,37.01
2024-05-09T06:52:16.279Z,36.99
2024-05-09T06:53:16.360Z,36.99
2024-05-09T06:54:16.315Z,36.99
2024-05-09T06:55:16.289Z,36.98
2024-05-09T06:56:16.416Z,36.97
2024-05-09T06:57:16.261Z,36.95
2024-05-09T06:58:16.314Z,36.95
2024-05-09T06:59:16.295Z,36.94
2024-05-09T07:00:23.041Z,36.93
2024-05-09T07:01:17.321Z,36.93
2024-05-09T07:02:16.394Z,36.93
2024-05-09T07:03:18.327Z,36.91
2024-05-09T07:04:16.389Z,36.91
2024-05-09T07:05:16.351Z,36.90
2024-05-09T07:06:16.795Z,36.92
2024-05-09T07:07:16.304Z,36.88
2024-05-09T07:08:16.498Z,36.86
2024-05-09T07:09:16.298Z,36.88
2024-05-09T07:10:22.107Z,36.85
2024-05-09T07:11:17.412Z,36.86
2024-05-09T07:12:16.474Z,36.88
2024-05-09T07:13:16.321Z,36.88
2024-05-09T07:14:16.453Z,36.87
2024-05-09T07:15:16.379Z,36.83
2024-05-09T07:16:16.409Z,36.85
2024-05-09T07:17:16.532Z,36.84
2024-05-09T07:18:18.173Z,36.82
2024-05-09T07:19:16.499Z,36.82
2024-05-09T07:20:23.547Z,36.83
2024-05-09T07:21:17.420Z,36.81
2024-05-09T07:22:16.337Z,36.83
2024-05-09T07:23:16.551Z,36.82
2024-05-09T07:24:16.341Z,36.83
2024-05-09T07:25:16.350Z,36.81
2024-05-09T07:26:16.457Z,36.79
2024-05-09T07:27:16.319Z,36.80
2024-05-09T07:28:16.811Z,36.77
2024-05-09T07:29:16.436Z,36.75
2024-05-09T07:30:23.507Z,36.77
2024-05-09T07:31:17.475Z,36.79
2024-05-09T07:32:16.572Z,36.76
2024-05-09T07:33:16.596Z,36.76
2024-05-09T07:34:16.597Z,36.75
2024-05-09T07:35:16.517Z,36.75
2024-05-09T07:36:16.568Z,36.75
2024-05-09T07:37:16.460Z,36.73
2024-05-09T07:38:16.571Z,36.74
2024-05-09T07:39:16.504Z,36.72
2024-05-09T07:40:24.960Z,36.73
2024-05-09T07:41:17.622Z,36.71
2024-05-09T07:42:16.583Z,36.71
2024-05-09T07:43:16.699Z,36.70
2024-05-09T07:44:16.640Z,36.67
2024-05-09T07:45:39.101Z,36.67
2024-05-09T07:47:14.259Z,36.68
2024-05-09T07:48:28.988Z,36.69
2024-05-09T07:53:29.961Z,36.67
2024-05-09T07:53:38.126Z,36.64
2024-05-09T07:54:18.043Z,36.63
2024-05-09T07:55:16.881Z,36.62
2024-05-09T07:56:16.988Z,36.61
2024-05-09T07:57:16.804Z,36.60
2024-05-09T07:58:16.743Z,36.55
2024-05-09T07:59:16.740Z,36.57
2024-05-09T08:00:23.512Z,36.57
2024-05-09T08:01:17.909Z,36.56
2024-05-09T08:02:16.955Z,36.56
2024-05-09T08:03:16.753Z,36.57
2024-05-09T08:04:16.775Z,36.57
2024-05-09T08:05:17.009Z,36.55
2024-05-09T08:06:16.735Z,36.58
2024-05-09T08:07:16.776Z,36.57
2024-05-09T08:08:16.767Z,36.55
2024-05-09T08:09:20.609Z,36.51
2024-05-09T08:10:22.042Z,36.56
2024-05-09T08:11:17.811Z,36.55
2024-05-09T08:12:16.757Z,36.54
2024-05-09T08:13:16.831Z,36.52
2024-05-09T08:14:16.738Z,36.50
2024-05-09T08:15:16.826Z,36.52
2024-05-09T08:16:16.801Z,36.51
2024-05-09T08:17:16.782Z,36.45
2024-05-09T08:18:16.793Z,36.46
2024-05-09T08:19:16.828Z,36.49
2024-05-09T08:20:26.514Z,36.41
2024-05-09T08:21:17.767Z,36.46
2024-05-09T08:22:16.794Z,36.44
2024-05-09T08:23:16.765Z,36.42
2024-05-09T08:24:16.755Z,36.48
2024-05-09T08:25:16.788Z,36.46
2024-05-09T08:26:16.804Z,36.38
2024-05-09T08:27:16.743Z,36.41
2024-05-09T08:28:16.806Z,36.35
2024-05-09T08:29:16.787Z,36.43
2024-05-09T08:30:24.612Z,36.47
2024-05-09T08:31:17.887Z,36.43
2024-05-09T08:32:16.802Z,36.38
2024-05-09T08:33:16.898Z,36.38
2024-05-09T08:34:16.942Z,36.41
2024-05-09T08:35:16.790Z,36.36
2024-05-09T08:36:16.798Z,36.44
2024-05-09T08:37:22.441Z,36.39
2024-05-09T08:38:17.778Z,36.40
2024-05-09T08:39:16.767Z,36.41
2024-05-09T08:40:23.977Z,36.34
2024-05-09T08:41:17.803Z,36.35
2024-05-09T08:42:16.772Z,36.37
2024-05-09T08:43:16.908Z,36.38
2024-05-09T08:44:16.787Z,36.37
2024-05-09T08:45:16.825Z,36.33
2024-05-09T08:46:16.840Z,36.34
2024-05-09T08:47:16.834Z,36.31
2024-05-09T08:48:17.023Z,36.31
2024-05-09T08:49:16.873Z,36.33
2024-05-09T08:50:28.707Z,36.33
2024-05-09T08:51:17.791Z,36.36
2024-05-09T08:52:16.804Z,36.35
2024-05-09T08:53:16.777Z,36.34
2024-05-09T08:54:16.798Z,36.30
2024-05-09T08:55:16.812Z,36.31
2024-05-09T08:56:16.802Z,36.34
2024-05-09T08:57:16.794Z,36.34
2024-05-09T08:58:17.226Z,36.36
2024-05-09T08:59:16.794Z,36.33
2024-05-09T09:00:25.597Z,36.33
2024-05-09T09:01:17.919Z,36.34
2024-05-09T09:02:16.990Z,36.31
2024-05-09T09:03:16.890Z,36.33
2024-05-09T09:04:16.940Z,36.31
2024-05-09T09:05:17.006Z,36.35
2024-05-09T09:06:16.807Z,36.32
2024-05-09T09:07:16.869Z,36.33
2024-05-09T09:08:16.792Z,36.35
2024-05-09T09:09:16.822Z,36.36
2024-05-09T09:10:25.376Z,36.36
2024-05-09T09:11:17.854Z,36.35
2024-05-09T09:12:16.828Z,36.33
2024-05-09T09:13:16.953Z,36.30
2024-05-09T09:14:16.821Z,36.34
2024-05-09T09:15:16.800Z,36.35
2024-05-09T09:16:16.963Z,36.35
2024-05-09T09:17:16.931Z,36.32
2024-05-09T09:18:16.946Z,36.34
2024-05-09T09:19:17.047Z,36.32
2024-05-09T09:20:23.206Z,36.33
2024-05-09T09:21:17.866Z,36.32
2024-05-09T09:22:16.955Z,36.29
2024-05-09T09:23:16.805Z,36.31
2024-05-09T09:24:16.838Z,36.28
2024-05-09T09:25:16.858Z,36.30
2024-05-09T09:26:16.854Z,36.26
2024-05-09T09:27:16.856Z,36.26
2024-05-09T09:28:16.935Z,36.24
2024-05-09T09:29:16.874Z,36.25
2024-05-09T09:30:30.868Z,36.22
2024-05-09T09:31:17.881Z,36.25
2024-05-09T09:32:16.943Z,36.24
2024-05-09T09:33:16.963Z,36.27
2024-05-09T09:34:16.972Z,36.26
2024-05-09T09:35:16.883Z,36.24
2024-05-09T09:36:16.839Z,36.25
2024-05-09T09:37:16.875Z,36.24
2024-05-09T09:38:16.860Z,36.25
2024-05-09T09:39:16.841Z,36.24
2024-05-09T09:40:18.432Z,36.24
2024-05-09T09:41:16.958Z,36.25
2024-05-09T09:42:16.851Z,36.19
2024-05-09T09:43:16.897Z,36.22
2024-05-09T09:44:16.835Z,36.22
2024-05-09T09:45:16.861Z,36.24
2024-05-09T09:46:16.985Z,36.23
2024-05-09T09:47:16.934Z,36.22
2024-05-09T09:48:17.051Z,36.24
2024-05-09T09:49:17.116Z,36.21
2024-05-09T09:50:20.879Z,36.23
2024-05-09T09:51:17.867Z,36.22
2024-05-09T09:52:17.103Z,36.22
2024-05-09T09:53:16.912Z,36.20
2024-05-09T09:54:16.883Z,36.21
2024-05-09T09:55:16.896Z,36.23
2024-05-09T09:56:16.849Z,36.25
2024-05-09T09:57:16.886Z,36.24
2024-05-09T09:58:17.084Z,36.24
2024-05-09T09:59:16.904Z,36.22
2024-05-09T10:00:24.039Z,36.22
2024-05-09T10:01:17.986Z,36.24
2024-05-09T10:02:17.041Z,36.22
2024-05-09T10:03:16.965Z,36.23
2024-05-09T10:04:17.121Z,36.24
2024-05-09T10:05:16.998Z,36.20
2024-05-09T10:06:16.911Z,36.22
2024-05-09T10:07:16.918Z,36.18
2024-05-09T10:08:16.906Z,36.20
2024-05-09T10:09:16.876Z,36.18
2024-05-09T10:10:22.956Z,36.20
2024-05-09T10:11:17.937Z,36.19
2024-05-09T10:12:16.924Z,36.17
2024-05-09T10:13:16.968Z,36.18
2024-05-09T10:14:16.888Z,36.18
2024-05-09T10:15:16.874Z,36.17
2024-05-09T10:16:16.946Z,36.18
2024-05-09T10:17:16.953Z,36.19
2024-05-09T10:18:17.074Z,36.20
2024-05-09T10:19:16.958Z,36.21
2024-05-09T10:20:21.932Z,36.19
2024-05-09T10:21:17.885Z,36.18
2024-05-09T10:22:16.937Z,36.18
2024-05-09T10:23:16.900Z,36.18
2024-05-09T10:24:16.969Z,36.18
2024-05-09T10:25:17.118Z,36.18
2024-05-09T10:26:16.907Z,36.16
2024-05-09T10:27:16.898Z,36.14
2024-05-09T10:28:17.005Z,36.15
2024-05-09T10:29:16.934Z,36.17
2024-05-09T10:30:25.774Z,36.15
2024-05-09T10:31:18.013Z,36.15
2024-05-09T10:32:16.956Z,36.13
2024-05-09T10:33:17.007Z,36.12
2024-05-09T10:34:17.012Z,36.12
2024-05-09T10:35:16.940Z,36.10
2024-05-09T10:36:16.927Z,36.09
2024-05-09T10:37:17.065Z,36.08
2024-05-09T10:38:16.914Z,36.08
2024-05-09T10:39:16.910Z,36.07
2024-05-09T10:40:23.486Z,36.07
2024-05-09T10:41:17.922Z,36.05
2024-05-09T10:42:16.937Z,36.04
2024-05-09T10:43:17.004Z,36.04
2024-05-09T10:44:16.948Z,36.05
2024-05-09T10:45:16.976Z,36.02
2024-05-09T10:46:17.108Z,36.00
2024-05-09T10:47:16.975Z,36.00
2024-05-09T10:48:17.020Z,35.97
2024-05-09T10:49:17.084Z,35.98
2024-05-09T10:50:22.661Z,35.99
2024-05-09T10:51:17.939Z,35.99
2024-05-09T10:52:16.980Z,36.00
2024-05-09T10:53:16.935Z,36.00
2024-05-09T10:54:16.934Z,35.98
2024-05-09T10:55:17.051Z,35.96
2024-05-09T10:56:17.210Z,35.95
2024-05-09T10:57:16.972Z,35.93
2024-05-09T10:58:17.096Z,35.93
2024-05-09T10:59:16.939Z,35.95
2024-05-09T11:00:27.043Z,35.93
2024-05-09T11:01:18.015Z,35.92
2024-05-09T11:02:17.064Z,35.93
2024-05-09T11:03:17.029Z,35.94
2024-05-09T11:04:17.225Z,35.91
2024-05-09T11:05:17.180Z,35.92
2024-05-09T11:06:17.042Z,35.91
2024-05-09T11:07:17.025Z,35.93
2024-05-09T11:08:16.968Z,35.89
2024-05-09T11:09:16.980Z,35.89
2024-05-09T11:10:24.858Z,35.87
2024-05-09T11:11:18.020Z,35.88
2024-05-09T11:12:16.965Z,35.88
2024-05-09T11:13:17.011Z,35.89
2024-05-09T11:14:16.988Z,35.89
2024-05-09T11:15:16.992Z,35.87
2024-05-09T11:16:17.416Z,35.87
2024-05-09T11:17:17.002Z,35.87
2024-05-09T11:18:17.130Z,35.86
2024-05-09T11:19:17.137Z,35.85
2024-05-09T11:20:23.232Z,35.84
2024-05-09T11:21:17.976Z,35.85
2024-05-09T11:22:17.011Z,35.86
2024-05-09T11:23:16.964Z,35.87
2024-05-09T11:24:16.983Z,35.84
2024-05-09T11:25:17.061Z,35.86
2024-05-09T11:26:16.980Z,35.84
2024-05-09T11:27:16.995Z,35.85
2024-05-09T11:28:17.161Z,35.88
2024-05-09T11:29:19.521Z,35.88
2024-05-09T11:30:24.204Z,35.88
2024-05-09T11:31:18.135Z,35.89
2024-05-09T11:32:17.049Z,35.85
2024-05-09T11:33:17.052Z,35.84
2024-05-09T11:34:17.074Z,35.81
2024-05-09T11:35:17.046Z,35.80
2024-05-09T11:36:17.016Z,35.78
2024-05-09T11:37:17.095Z,35.78
2024-05-09T11:38:17.025Z,35.76
2024-05-09T11:39:17.027Z,35.77
2024-05-09T11:40:24.841Z,35.76
2024-05-09T11:41:17.980Z,35.76
2024-05-09T11:42:17.003Z,35.76
2024-05-09T11:43:17.105Z,35.74
2024-05-09T11:44:17.047Z,35.72
2024-05-09T11:45:17.110Z,35.74
2024-05-09T11:46:17.238Z,35.71
2024-05-09T11:47:17.044Z,35.70
2024-05-09T11:48:17.132Z,35.70
2024-05-09T11:49:17.135Z,35.69
2024-05-09T11:50:26.729Z,35.72
2024-05-09T11:51:17.999Z,35.70
2024-05-09T11:52:17.151Z,35.68
2024-05-09T11:53:17.041Z,35.68
2024-05-09T11:54:17.036Z,35.67
2024-05-09T11:55:17.120Z,35.67
2024-05-09T11:56:17.001Z,35.64
2024-05-09T11:57:16.988Z,35.63
2024-05-09T11:58:17.484Z,35.64
2024-05-09T11:59:17.015Z,35.63
2024-05-09T12:00:24.883Z,35.61
2024-05-09T12:01:18.096Z,35.62
2024-05-09T12:02:17.216Z,35.64
2024-05-09T12:03:17.062Z,35.65
2024-05-09T12:04:17.187Z,35.61
2024-05-09T12:05:17.269Z,35.64
2024-05-09T12:06:17.073Z,35.62
2024-05-09T12:07:17.136Z,35.59
2024-05-09T12:08:17.044Z,35.60
2024-05-09T12:09:17.034Z,35.59
2024-05-09T12:10:22.314Z,35.57
2024-05-09T12:11:18.098Z,35.57
2024-05-09T12:12:17.052Z,35.56
2024-05-09T12:13:17.100Z,35.56
2024-05-09T12:14:17.052Z,35.54
2024-05-09T12:15:17.240Z,35.52
2024-05-09T12:16:17.248Z,35.52
2024-05-09T12:17:17.070Z,35.52
2024-05-09T12:18:17.059Z,35.49
2024-05-09T12:19:17.135Z,35.47
2024-05-09T12:20:25.151Z,35.46
2024-05-09T12:21:18.051Z,35.45
2024-05-09T12:22:17.162Z,35.42
2024-05-09T12:23:17.072Z,35.38
2024-05-09T12:24:18.516Z,35.38
2024-05-09T12:25:17.145Z,35.33
2024-05-09T12:26:17.064Z,35.34
2024-05-09T12:27:17.072Z,35.35
2024-05-09T12:28:17.193Z,35.34
2024-05-09T12:29:17.121Z,35.27
2024-05-09T12:30:28.062Z,35.28
2024-05-09T12:31:18.247Z,35.27
2024-05-09T12:32:17.223Z,35.29
2024-05-09T12:33:17.345Z,35.26
2024-05-09T12:34:17.302Z,35.26
2024-05-09T12:35:17.229Z,35.25
2024-05-09T12:36:17.229Z,35.29
2024-05-09T12:37:17.352Z,35.30
2024-05-09T12:38:17.241Z,35.29
2024-05-09T12:39:17.292Z,35.33
2024-05-09T12:40:26.229Z,35.32
2024-05-09T12:41:18.404Z,35.36
2024-05-09T12:42:26.552Z,35.34
2024-05-09T12:43:18.471Z,35.38
2024-05-09T12:44:17.378Z,35.36
2024-05-09T12:45:17.407Z,35.39
2024-05-09T12:46:17.444Z,35.41
2024-05-09T12:47:17.438Z,35.41
2024-05-09T12:48:17.546Z,35.40
2024-05-09T12:49:19.167Z,35.42
2024-05-09T12:50:25.114Z,35.41
2024-05-09T12:51:18.468Z,35.43
2024-05-09T12:52:17.452Z,35.41
2024-05-09T12:53:17.463Z,35.37
2024-05-09T12:54:17.450Z,35.38
2024-05-09T12:55:17.688Z,35.37
2024-05-09T12:56:17.473Z,35.36